Impacts METAR Board
IDs:

KIAH - Houston/Bush Intl, TX, US

Updated at: 1700 UTC 24 Sep 2018
Potential Impact None Slight Moderate High
Time 24/05Z 24/06Z 24/07Z 24/08Z 24/09Z 24/10Z 24/11Z 24/12Z 24/13Z 24/14Z 24/15Z 24/16Z 24/17Z
Temp73 72 72 71 71 73 71 71 72 77 80 82 84
Dewpt71 71 71 71 71 72 71 71 72 72 71 71 71
Altim29.90 29.90 29.89 29.88 29.89 29.89 29.90 29.92 29.93 29.94 29.95 29.96 29.95
VIS10 10 10 10 10 10 10 10 10 10 10 10 10
CIG46 -- 39 -- 45 45 -- -- -- -- -- -- --
CoverBKNSCTBKNSCTBKNBKNSCTSCTFEWFEWFEWFEWSCT
FltCatVFRVFRVFRVFRVFRVFRVFRVFRVFRVFRVFRVFRVFR
WX--------------------------
WDir0000160200017020000280200
WSpd0 0 0 0 3 3 0 4 3 0 3 4 7
WGst-- -- -- -- -- -- -- -- -- -- -- -- --
Raw hourly METARs
KIAH 240453Z 00000KT 10SM BKN046 23/22 A2990 RMK AO2 SLP124 T02280217
KIAH 240553Z 00000KT 10SM SCT042 SCT250 22/22 A2990 RMK AO2 SLP123 T02220217 10256 20222 402890211 50004
KIAH 240653Z 00000KT 10SM BKN039 BKN250 22/22 A2989 RMK AO2 SLP120 T02220217
KIAH 240753Z 00000KT 10SM SCT037 SCT250 22/22 A2988 RMK AO2 SLP119 T02170217
KIAH 240853Z 16003KT 10SM BKN045 22/22 A2989 RMK AO2 SLP122 T02170217 55000
KIAH 240953Z 20003KT 10SM BKN045 23/22 A2989 RMK AO2 SLP121 T02280222
KIAH 241053Z 00000KT 10SM SCT050 22/22 A2990 RMK AO2 SLP124 T02170217
KIAH 241153Z 17004KT 10SM SCT050 SCT250 22/22 A2992 RMK AO2 SLP132 T02170217 10228 20211 53009
KIAH 241253Z 20003KT 10SM FEW055 FEW250 22/22 A2993 RMK AO2 SLP134 T02220222
KIAH 241353Z 00000KT 10SM FEW055 FEW250 25/22 A2994 RMK AO2 SLP138 T02500222
KIAH 241453Z VRB03KT 10SM FEW020 FEW055 27/22 A2995 RMK AO2 SLP142 T02670217 53010
KIAH 241553Z 28004KT 10SM FEW025 FEW250 28/22 A2996 RMK AO2 SLP144 T02780217
KIAH 241653Z 20007KT 10SM SCT035 SCT250 29/22 A2995 RMK AO2 SLP141 T02890217



Page loaded:  17:00 UTC  |   10:00 AM Pacific  |   11:00 AM Mountain  |   12:00 PM Central  |   01:00 PM Eastern

 

ADVISORIES

FORECASTS

FORECASTS

OBSERVATIONS

USER TOOLS

ABOUT US